Time;durP1;ratioP1;P1;durP2;ratioP2;P2;SDS_P1;SDS_P2;PMS_P1;PMS_P2;Temp;Humidity;BMP_temperature;BMP_pressure;BME280_temperature;BME280_humidity;BME280_pressure;Samples;Min_cycle;Max_cycle;Signal;HPM_P1;HPM_P2
2022/06/24 00:01:23;;;;;;;;;;;;;;;25.42;51.52;99014.91;7316461;19;130021;-35
2022/06/24 00:03:49;;;;;;;;;;;;;;;25.43;52.03;99011.25;7315486;19;130149;-38
2022/06/24 00:06:15;;;;;;;;;;;;;;;25.45;52.08;99019.81;7315037;19;129942;-41
2022/06/24 00:08:51;;;;;;;;;;;;;;;25.37;51.91;99001.47;7313084;19;129266;-34
2022/06/24 00:11:20;;;;;;;;;;;;;;;25.38;52.10;99000.44;7315815;19;130124;-39
2022/06/24 00:13:46;;;;;;;;;;;;;;;25.47;52.58;99021.25;7314076;19;129186;-35
2022/06/24 00:16:11;;;;;;;;;;;;;;;25.09;47.72;99029.28;7312268;19;128937;-32
2022/06/24 00:18:36;;;;;;;;;;;;;;;24.82;46.80;99032.41;7312403;19;129356;-31
2022/06/24 00:21:10;;;;;;;;;;;;;;;24.72;46.32;99022.13;7314678;19;129999;-33
2022/06/24 00:23:37;;;;;;;;;;;;;;;24.73;46.19;99033.44;7315590;19;129390;-35
2022/06/24 00:26:02;;;;;;;;;;;;;;;24.73;46.18;99029.00;7312937;19;129597;-38
2022/06/24 00:28:28;;;;;;;;;;;;;;;24.71;46.00;99025.72;7310441;19;132027;-34
2022/06/24 00:30:54;;;;;;;;;;;;;;;24.75;45.97;99029.66;7314558;19;129139;-34
2022/06/24 00:33:21;;;;;;;;;;;;;;;24.76;45.83;99027.84;7311892;19;130367;-33
2022/06/24 00:35:47;;;;;;;;;;;;;;;24.97;51.16;99030.66;7314279;19;129071;-34
2022/06/24 00:38:25;;;;;;;;;;;;;;;25.16;51.94;99028.38;7313022;19;129092;-33
2022/06/24 00:40:52;;;;;;;;;;;;;;;25.28;51.37;99034.06;7313569;19;129786;-30
2022/06/24 00:43:29;;;;;;;;;;;;;;;25.38;51.86;99029.41;7314776;19;132475;-37
2022/06/24 00:46:03;;;;;;;;;;;;;;;25.42;51.80;99030.69;7313590;19;129034;-33
2022/06/24 00:48:29;;;;;;;;;;;;;;;25.45;51.93;99030.34;7312202;19;130660;-32
2022/06/24 00:50:55;;;;;;;;;;;;;;;25.47;52.38;99030.94;7314900;19;130139;-36
2022/06/24 00:53:20;;;;;;;;;;;;;;;25.50;51.88;99027.97;7312880;19;130378;-36
2022/06/24 00:55:46;;;;;;;;;;;;;;;25.42;51.82;99014.91;7314479;19;129919;-34
2022/06/24 00:58:15;;;;;;;;;;;;;;;25.51;52.43;99019.06;7311771;19;128929;-34
2022/06/24 01:00:42;;;;;;;;;;;;;;;24.99;46.77;99029.50;7313708;19;130131;-37
2022/06/24 01:03:08;;;;;;;;;;;;;;;24.81;46.65;99030.78;7314497;19;130973;-32
2022/06/24 01:05:33;;;;;;;;;;;;;;;24.77;46.12;99029.47;7313268;19;129760;-34
2022/06/24 01:08:04;;;;;;;;;;;;;;;24.75;46.02;99032.28;7311714;19;129421;-36
2022/06/24 01:10:30;;;;;;;;;;;;;;;24.77;46.46;99032.13;7314559;19;129661;-35
2022/06/24 01:12:55;;;;;;;;;;;;;;;24.76;46.38;99025.22;7313996;19;129981;-36
2022/06/24 01:15:20;;;;;;;;;;;;;;;24.77;45.61;99024.22;7313738;19;129160;-34
2022/06/24 01:17:46;;;;;;;;;;;;;;;24.77;45.65;99024.22;7311297;19;129308;-37
2022/06/24 01:20:12;;;;;;;;;;;;;;;25.05;51.13;99022.72;7314838;19;129416;-35
2022/06/24 01:22:37;;;;;;;;;;;;;;;25.20;51.48;99011.28;7313277;19;129238;-34
2022/06/24 01:25:03;;;;;;;;;;;;;;;25.33;51.38;99008.03;7314105;19;129575;-34
2022/06/24 01:27:28;;;;;;;;;;;;;;;25.38;51.50;99008.34;7311689;19;129146;-41
2022/06/24 01:29:54;;;;;;;;;;;;;;;25.34;52.24;98992.06;7312187;19;130010;-36
2022/06/24 01:32:19;;;;;;;;;;;;;;;25.47;51.99;99008.09;7312736;19;129684;-35
2022/06/24 01:34:45;;;;;;;;;;;;;;;25.43;51.56;98996.28;7310517;19;129069;-40
2022/06/24 01:37:10;;;;;;;;;;;;;;;25.52;52.45;99012.81;7309455;19;128960;-36
2022/06/24 01:39:35;;;;;;;;;;;;;;;25.54;52.09;99008.19;7311408;19;128948;-33
2022/06/24 01:42:01;;;;;;;;;;;;;;;25.54;51.94;99003.75;7312533;19;129534;-33
2022/06/24 01:44:26;;;;;;;;;;;;;;;25.56;52.63;99006.19;7312894;19;129461;-32
2022/06/24 01:46:54;;;;;;;;;;;;;;;25.19;47.06;98998.25;7310995;19;130011;-36
2022/06/24 01:49:20;;;;;;;;;;;;;;;24.86;46.66;98996.91;7311768;19;129213;-38
2022/06/24 01:51:47;;;;;;;;;;;;;;;24.80;46.53;99002.84;7313487;19;130381;-37
2022/06/24 01:54:12;;;;;;;;;;;;;;;24.78;46.27;98999.56;7310567;19;129489;-39
2022/06/24 01:56:37;;;;;;;;;;;;;;;24.77;46.29;98992.69;7311970;19;129740;-42
2022/06/24 01:59:03;;;;;;;;;;;;;;;24.76;46.04;98996.31;7311117;19;129535;-35
2022/06/24 02:01:28;;;;;;;;;;;;;;;24.78;45.89;98995.13;7312007;19;130367;-34
2022/06/24 02:03:54;;;;;;;;;;;;;;;24.80;45.78;98995.78;7312510;19;129482;-34
2022/06/24 02:06:19;;;;;;;;;;;;;;;25.09;51.12;98997.72;7311282;19;129112;-35
2022/06/24 02:08:45;;;;;;;;;;;;;;;25.26;51.32;98988.66;7311182;19;130095;-41
2022/06/24 02:13:56;;;;;;;;;;;;;;;25.44;52.11;98992.66;7311156;19;129245;-35
2022/06/24 02:16:21;;;;;;;;;;;;;;;25.43;51.52;98984.94;7311332;19;129550;-34
2022/06/24 02:18:47;;;;;;;;;;;;;;;25.52;51.81;98989.13;7312014;19;128989;-39
2022/06/24 02:21:13;;;;;;;;;;;;;;;25.54;51.98;98987.13;7313061;19;130645;-35
2022/06/24 02:23:38;;;;;;;;;;;;;;;25.55;52.40;98988.78;7311593;19;130439;-33
2022/06/24 02:26:04;;;;;;;;;;;;;;;25.53;52.21;98981.06;7311962;19;129628;-37
2022/06/24 02:28:29;;;;;;;;;;;;;;;25.55;52.38;98979.03;7309512;19;130411;-38
2022/06/24 02:30:55;;;;;;;;;;;;;;;25.14;46.57;98979.59;7312070;19;130165;-34
2022/06/24 02:33:21;;;;;;;;;;;;;;;24.86;46.42;98986.38;7310668;19;129375;-39
2022/06/24 02:35:46;;;;;;;;;;;;;;;24.83;46.26;98989.34;7311780;19;130010;-35
2022/06/24 02:38:11;;;;;;;;;;;;;;;24.72;46.24;98979.22;7307642;19;129215;-34
2022/06/24 02:40:46;;;;;;;;;;;;;;;24.81;46.03;99000.03;7312222;19;129614;-32
2022/06/24 02:43:12;;;;;;;;;;;;;;;24.82;45.67;98990.34;7309953;19;129735;-31
2022/06/24 02:45:38;;;;;;;;;;;;;;;24.83;45.84;98986.72;7310860;19;130068;-38
2022/06/24 02:48:04;;;;;;;;;;;;;;;24.85;47.96;98995.25;7308071;19;129317;-32
2022/06/24 02:50:29;;;;;;;;;;;;;;;25.14;51.54;98990.13;7315431;19;129953;-35
2022/06/24 02:52:54;;;;;;;;;;;;;;;25.29;51.08;98993.56;7317647;19;130857;-35
2022/06/24 02:55:20;;;;;;;;;;;;;;;25.41;51.89;98984.28;7315218;19;128992;-37
2022/06/24 02:57:45;;;;;;;;;;;;;;;25.48;51.91;98993.13;7315020;19;130161;-37
2022/06/24 03:00:10;;;;;;;;;;;;;;;25.55;51.69;98988.78;7316386;19;129559;-34
2022/06/24 03:02:36;;;;;;;;;;;;;;;25.57;52.19;98992.03;7315234;19;129756;-42
2022/06/24 03:05:01;;;;;;;;;;;;;;;25.51;52.03;98984.84;7313692;19;129252;-32
2022/06/24 03:07:26;;;;;;;;;;;;;;;25.53;52.43;98974.97;7315107;19;129755;-37
2022/06/24 03:09:51;;;;;;;;;;;;;;;25.59;51.67;98988.22;7314312;19;129616;-35
2022/06/24 03:12:16;;;;;;;;;;;;;;;25.61;52.13;98982.78;7318300;19;129775;-37
2022/06/24 03:14:42;;;;;;;;;;;;;;;25.62;52.60;98981.78;7314345;19;129098;-33
2022/06/24 03:17:07;;;;;;;;;;;;;;;25.16;46.94;98985.47;7316358;19;129962;-35
2022/06/24 03:19:32;;;;;;;;;;;;;;;24.91;46.60;98997.16;7316295;19;129385;-39
2022/06/24 03:21:57;;;;;;;;;;;;;;;24.85;46.40;98984.72;7317410;19;130908;-34
2022/06/24 03:24:22;;;;;;;;;;;;;;;24.82;46.56;98985.09;7316577;19;129215;-37
2022/06/24 03:26:48;;;;;;;;;;;;;;;24.82;46.11;98985.09;7316127;19;129976;-30
2022/06/24 03:29:13;;;;;;;;;;;;;;;24.83;45.96;98989.34;7316994;19;130868;-38
2022/06/24 03:31:38;;;;;;;;;;;;;;;24.83;46.06;98989.34;7317544;19;129418;-32
2022/06/24 03:34:03;;;;;;;;;;;;;;;24.88;47.65;99000.97;7316318;19;129927;-36
2022/06/24 03:36:29;;;;;;;;;;;;;;;25.16;51.08;98990.72;7316850;19;129857;-33
2022/06/24 03:38:54;;;;;;;;;;;;;;;25.33;51.87;98994.88;7315846;19;130333;-32
2022/06/24 03:41:19;;;;;;;;;;;;;;;25.45;51.58;98988.22;7317025;19;128942;-35
2022/06/24 03:43:44;;;;;;;;;;;;;;;25.50;51.35;98985.88;7315272;19;129330;-41
2022/06/24 03:46:10;;;;;;;;;;;;;;;25.53;51.34;98985.50;7316134;19;130245;-36
2022/06/24 03:48:35;;;;;;;;;;;;;;;25.56;51.81;98985.13;7313543;19;131090;-30
2022/06/24 03:51:00;;;;;;;;;;;;;;;25.59;51.68;98990.03;7316743;19;128916;-39
2022/06/24 03:53:25;;;;;;;;;;;;;;;25.60;51.66;98981.16;7315003;19;130015;-35
2022/06/24 03:55:51;;;;;;;;;;;;;;;25.62;52.22;98985.22;7314339;19;129644;-36
2022/06/24 03:58:17;;;;;;;;;;;;;;;25.63;51.67;98986.84;7312415;19;129820;-36
2022/06/24 04:00:42;;;;;;;;;;;;;;;25.65;52.20;98984.06;7312772;19;129236;-41
2022/06/24 04:03:07;;;;;;;;;;;;;;;24.98;46.21;98980.53;7315198;19;129185;-30
2022/06/24 04:05:33;;;;;;;;;;;;;;;24.78;46.07;98957.50;7314957;19;129225;-37
2022/06/24 04:07:58;;;;;;;;;;;;;;;24.84;45.99;98977.84;7311844;19;130400;-39
2022/06/24 04:10:23;;;;;;;;;;;;;;;24.85;45.71;98979.47;7315625;19;129581;-36
2022/06/24 04:12:48;;;;;;;;;;;;;;;24.84;46.27;98973.38;7311434;19;130589;-39
2022/06/24 04:15:13;;;;;;;;;;;;;;;24.84;46.10;98977.84;7313916;19;131026;-35
2022/06/24 04:17:39;;;;;;;;;;;;;;;24.86;45.47;98978.50;7312365;19;130889;-32
2022/06/24 04:20:04;;;;;;;;;;;;;;;25.08;51.04;98982.91;7315318;19;129258;-35
2022/06/24 04:22:30;;;;;;;;;;;;;;;25.31;51.46;98981.06;7315845;19;129946;-34
2022/06/24 04:24:55;;;;;;;;;;;;;;;25.42;51.72;98980.69;7314018;19;130554;-34
2022/06/24 04:27:20;;;;;;;;;;;;;;;25.51;51.81;98983.06;7311305;19;129934;-37
2022/06/24 04:29:45;;;;;;;;;;;;;;;25.56;52.11;98974.59;7313596;19;129173;-34
2022/06/24 04:32:11;;;;;;;;;;;;;;;25.61;51.53;98961.72;7313690;19;129363;-38
2022/06/24 04:34:37;;;;;;;;;;;;;;;25.56;51.86;98961.44;7312376;19;130123;-31
2022/06/24 04:37:02;;;;;;;;;;;;;;;25.64;51.85;98967.44;7312260;19;129700;-33
2022/06/24 04:39:27;;;;;;;;;;;;;;;25.67;52.18;98972.34;7312737;19;129007;-35
2022/06/24 04:41:53;;;;;;;;;;;;;;;25.67;52.34;98968.88;7316455;19;130761;-33
2022/06/24 04:44:18;;;;;;;;;;;;;;;25.20;46.91;98963.09;7313864;19;130525;-36
2022/06/24 04:46:43;;;;;;;;;;;;;;;24.93;46.67;98956.56;7311661;19;130252;-41
2022/06/24 04:49:08;;;;;;;;;;;;;;;24.86;45.85;98950.38;7311753;19;130032;-38
2022/06/24 04:51:34;;;;;;;;;;;;;;;24.85;45.76;98947.91;7311785;19;130153;-34
2022/06/24 04:53:59;;;;;;;;;;;;;;;24.86;45.58;98952.19;7311401;19;131616;-38
2022/06/24 04:56:24;;;;;;;;;;;;;;;24.85;45.70;98946.13;7311331;19;130485;-38
2022/06/24 04:58:49;;;;;;;;;;;;;;;24.88;45.90;98953.66;7311968;19;129711;-36
2022/06/24 05:01:15;;;;;;;;;;;;;;;25.09;50.87;98950.38;7308210;19;129095;-41
2022/06/24 05:03:40;;;;;;;;;;;;;;;25.31;51.28;98938.97;7312013;19;129570;-37
2022/06/24 05:06:06;;;;;;;;;;;;;;;25.42;51.23;98941.22;7310629;19;130207;-38
2022/06/24 05:08:31;;;;;;;;;;;;;;;25.53;51.40;98941.56;7307060;19;129569;-37
2022/06/24 05:10:56;;;;;;;;;;;;;;;25.58;51.51;98941.81;7314425;19;129047;-32
2022/06/24 05:13:22;;;;;;;;;;;;;;;25.62;51.29;98932.56;7310932;19;129035;-36
2022/06/24 05:15:47;;;;;;;;;;;;;;;25.65;51.25;98941.94;7311467;19;130501;-34
2022/06/24 05:18:12;;;;;;;;;;;;;;;25.67;51.87;98939.94;7309677;19;129605;-39
2022/06/24 05:20:37;;;;;;;;;;;;;;;25.68;51.84;98944.22;7311796;19;129094;-37
2022/06/24 05:23:02;;;;;;;;;;;;;;;25.68;51.92;98944.22;7313826;19;131022;-41
2022/06/24 05:25:28;;;;;;;;;;;;;;;25.66;52.41;98930.41;7311992;19;129776;-35
2022/06/24 05:27:53;;;;;;;;;;;;;;;25.49;48.16;98937.66;7311101;19;128965;-35
2022/06/24 05:30:18;;;;;;;;;;;;;;;24.98;46.10;98935.81;7315070;19;129071;-35
2022/06/24 05:32:44;;;;;;;;;;;;;;;24.89;45.77;98939.50;7313937;19;129494;-35
2022/06/24 05:35:09;;;;;;;;;;;;;;;24.87;45.84;98933.63;7310391;19;129241;-40
2022/06/24 05:37:36;;;;;;;;;;;;;;;24.86;45.39;98933.78;7311477;19;130187;-36
2022/06/24 05:40:02;;;;;;;;;;;;;;;24.86;45.29;98929.34;7313717;19;130034;-34
2022/06/24 05:42:27;;;;;;;;;;;;;;;24.86;45.14;98923.28;7313981;19;129774;-34
2022/06/24 05:44:52;;;;;;;;;;;;;;;25.14;50.71;98924.34;7310233;19;130293;-33
2022/06/24 05:47:18;;;;;;;;;;;;;;;25.33;51.38;98927.28;7310344;19;130631;-34
2022/06/24 05:49:43;;;;;;;;;;;;;;;25.45;50.86;98927.69;7312806;19;130449;-34
2022/06/24 05:52:08;;;;;;;;;;;;;;;25.54;51.64;98918.69;7310491;19;129796;-37
2022/06/24 05:57:17;;;;;;;;;;;;;;;25.64;51.39;98917.44;7310373;19;129222;-38
2022/06/24 05:59:43;;;;;;;;;;;;;;;25.66;52.19;98902.28;7311863;19;130019;-32
2022/06/24 06:02:08;;;;;;;;;;;;;;;25.67;51.68;98903.88;7311059;19;131251;-36
2022/06/24 06:04:33;;;;;;;;;;;;;;;25.70;51.62;98908.00;7311478;19;130285;-37
2022/06/24 06:06:59;;;;;;;;;;;;;;;25.71;51.56;98904.34;7310389;19;129752;-35
2022/06/24 06:09:24;;;;;;;;;;;;;;;25.60;51.92;98876.66;7311297;19;131187;-39
2022/06/24 06:11:49;;;;;;;;;;;;;;;25.20;46.88;98899.94;7312737;19;130079;-31
2022/06/24 06:14:15;;;;;;;;;;;;;;;24.96;46.48;98887.00;7309121;19;129171;-39
2022/06/24 06:16:40;;;;;;;;;;;;;;;24.90;45.88;98887.72;7311777;19;129318;-36
2022/06/24 06:19:05;;;;;;;;;;;;;;;24.79;46.07;98872.38;7309348;19;129543;-33
2022/06/24 06:21:30;;;;;;;;;;;;;;;24.88;45.90;98884.44;7312350;19;129159;-37
2022/06/24 06:23:56;;;;;;;;;;;;;;;24.87;45.77;98891.53;7313581;19;130845;-34
2022/06/24 06:26:21;;;;;;;;;;;;;;;25.01;49.86;98879.41;7318435;19;129484;-34
2022/06/24 06:28:46;;;;;;;;;;;;;;;25.27;51.72;98874.56;7315434;19;129034;-32
2022/06/24 06:31:11;;;;;;;;;;;;;;;25.34;51.27;98860.47;7319526;19;130122;-34
2022/06/24 06:33:37;;;;;;;;;;;;;;;25.51;51.09;98871.66;7319032;19;129297;-39
2022/06/24 06:36:12;;;;;;;;;;;;;;;25.57;51.50;98870.94;7318104;19;129496;-35
2022/06/24 06:38:37;;;;;;;;;;;;;;;25.63;51.57;98870.22;7315167;19;128897;-40
2022/06/24 06:41:03;;;;;;;;;;;;;;;25.65;51.99;98874.28;7318267;19;130269;-32
2022/06/24 06:43:28;;;;;;;;;;;;;;;25.67;51.62;98871.47;7318576;19;129649;-37
2022/06/24 06:45:54;;;;;;;;;;;;;;;25.67;52.31;98876.72;7318237;19;131471;-34
2022/06/24 06:48:20;;;;;;;;;;;;;;;25.70;51.75;98879.81;7316534;19;129128;-40
2022/06/24 06:50:45;;;;;;;;;;;;;;;25.69;51.60;98877.38;7318431;19;129212;-41
2022/06/24 06:53:11;;;;;;;;;;;;;;;25.13;46.10;98867.44;7318763;19;129963;-35
2022/06/24 06:55:36;;;;;;;;;;;;;;;24.93;46.28;98864.53;7315213;19;129442;-37
2022/06/24 06:58:01;;;;;;;;;;;;;;;24.77;45.65;98848.06;7316237;19;128874;-30
2022/06/24 07:00:26;;;;;;;;;;;;;;;24.86;45.51;98857.53;7317647;19;129401;-33
2022/06/24 07:02:52;;;;;;;;;;;;;;;24.88;45.62;98860.78;7317399;19;129199;-40
2022/06/24 07:05:17;;;;;;;;;;;;;;;24.87;45.83;98862.63;7317392;19;128818;-32
2022/06/24 07:07:43;;;;;;;;;;;;;;;25.11;50.50;98864.19;7316551;19;129451;-36
2022/06/24 07:10:08;;;;;;;;;;;;;;;25.33;51.22;98850.97;7317875;19;130896;-32
2022/06/24 07:12:33;;;;;;;;;;;;;;;25.44;51.07;98847.06;7317550;19;129262;-30
2022/06/24 07:14:58;;;;;;;;;;;;;;;25.53;51.23;98849.44;7315631;19;130033;-33
2022/06/24 07:17:24;;;;;;;;;;;;;;;25.60;51.41;98844.25;7317353;19;130848;-30
2022/06/24 07:19:49;;;;;;;;;;;;;;;25.63;51.23;98843.91;7317536;19;130657;-33
2022/06/24 07:22:14;;;;;;;;;;;;;;;25.57;52.01;98834.06;7317222;19;130133;-41
2022/06/24 07:24:40;;;;;;;;;;;;;;;25.68;51.77;98836.25;7317010;19;128986;-31
2022/06/24 07:27:06;;;;;;;;;;;;;;;25.59;51.85;98826.81;7316132;19;129245;-34
2022/06/24 07:29:35;;;;;;;;;;;;;;;25.63;51.90;98822.84;7313729;19;130540;-36
2022/06/24 07:32:00;;;;;;;;;;;;;;;25.72;52.11;98826.19;7317073;19;131090;-36
2022/06/24 07:34:30;;;;;;;;;;;;;;;25.36;47.07;98826.13;7314277;19;128838;-33
2022/06/24 07:36:56;;;;;;;;;;;;;;;24.97;45.93;98825.53;7316119;19;129437;-33
2022/06/24 07:39:21;;;;;;;;;;;;;;;24.92;46.31;98825.25;7315020;19;130272;-32
2022/06/24 07:41:46;;;;;;;;;;;;;;;24.90;45.74;98838.59;7315949;19;129583;-31
2022/06/24 07:44:11;;;;;;;;;;;;;;;24.90;45.98;98832.50;7316898;19;129047;-37
2022/06/24 07:46:37;;;;;;;;;;;;;;;24.90;45.79;98829.88;7315556;19;128961;-31
2022/06/24 07:49:02;;;;;;;;;;;;;;;24.90;45.76;98824.63;7315871;19;129939;-34
2022/06/24 07:51:27;;;;;;;;;;;;;;;25.16;50.67;98820.56;7316523;19;130532;-40
2022/06/24 07:53:53;;;;;;;;;;;;;;;25.38;51.67;98824.94;7315636;19;128912;-32
2022/06/24 07:59:02;;;;;;;;;;;;;;;25.57;51.72;98802.50;7316176;19;128795;-38
2022/06/24 08:01:27;;;;;;;;;;;;;;;25.62;51.25;98800.94;7315989;19;129294;-31
2022/06/24 08:03:52;;;;;;;;;;;;;;;25.65;52.01;98805.03;7316037;19;129043;-36
2022/06/24 08:06:17;;;;;;;;;;;;;;;25.67;51.96;98797.75;7314982;19;128912;-31
2022/06/24 08:08:43;;;;;;;;;;;;;;;25.68;51.93;98789.66;7314429;19;130684;-30
2022/06/24 08:11:08;;;;;;;;;;;;;;;25.69;52.18;98785.22;7315271;19;131429;-46
2022/06/24 08:13:33;;;;;;;;;;;;;;;25.70;51.68;98792.13;7316808;19;131224;-32
2022/06/24 08:15:59;;;;;;;;;;;;;;;25.44;48.08;98791.81;7314397;19;128869;-39
2022/06/24 08:18:25;;;;;;;;;;;;;;;25.01;46.57;98785.53;7313331;19;130298;-34
2022/06/24 08:20:50;;;;;;;;;;;;;;;24.95;46.46;98774.94;7316064;19;129840;-31
2022/06/24 08:23:15;;;;;;;;;;;;;;;24.82;46.12;98753.72;7315654;19;131356;-34
2022/06/24 08:25:41;;;;;;;;;;;;;;;24.90;45.90;98782.53;7315921;19;128919;-37
2022/06/24 08:28:06;;;;;;;;;;;;;;;24.83;45.96;98755.31;7314263;19;130204;-31
2022/06/24 08:30:31;;;;;;;;;;;;;;;24.90;45.87;98767.59;7316383;19;130471;-35
2022/06/24 08:32:56;;;;;;;;;;;;;;;25.10;51.06;98762.59;7316026;19;129554;-37
2022/06/24 08:35:22;;;;;;;;;;;;;;;25.39;51.75;98773.13;7312973;19;129079;-36
2022/06/24 08:37:47;;;;;;;;;;;;;;;25.51;51.12;98769.03;7313964;19;130002;-38
2022/06/24 08:40:13;;;;;;;;;;;;;;;25.57;51.80;98761.19;7314804;19;130170;-32
2022/06/24 08:42:38;;;;;;;;;;;;;;;25.62;51.11;98764.09;7316083;19;129040;-32
2022/06/24 08:45:04;;;;;;;;;;;;;;;25.64;51.39;98750.75;7315973;19;130011;-37
2022/06/24 08:47:29;;;;;;;;;;;;;;;25.68;51.74;98763.34;7312508;19;129159;-32
2022/06/24 08:49:55;;;;;;;;;;;;;;;25.69;52.17;98764.16;7316122;19;131025;-35
2022/06/24 08:52:20;;;;;;;;;;;;;;;25.70;51.32;98771.06;7315977;19;130035;-36
2022/06/24 08:54:46;;;;;;;;;;;;;;;25.70;51.60;98766.59;7313645;19;129012;-39
2022/06/24 08:57:12;;;;;;;;;;;;;;;25.73;51.76;98749.63;7314464;19;129304;-43
2022/06/24 08:59:37;;;;;;;;;;;;;;;25.35;47.05;98746.34;7314848;19;130869;-40
2022/06/24 09:02:03;;;;;;;;;;;;;;;25.00;46.27;98751.53;7315094;19;129115;-34
2022/06/24 09:04:31;;;;;;;;;;;;;;;24.94;46.51;98747.81;7313287;19;129311;-34
2022/06/24 09:06:56;;;;;;;;;;;;;;;24.91;46.31;98744.72;7314011;19;129365;-33
2022/06/24 09:09:23;;;;;;;;;;;;;;;24.92;46.31;98743.75;7313682;19;129530;-29
2022/06/24 09:11:51;;;;;;;;;;;;;;;24.90;45.78;98746.56;7312843;19;129098;-37
2022/06/24 09:14:16;;;;;;;;;;;;;;;24.93;45.30;98745.38;7312278;19;130232;-32
2022/06/24 09:16:42;;;;;;;;;;;;;;;25.17;51.05;98752.97;7311004;19;130131;-36
2022/06/24 09:19:07;;;;;;;;;;;;;;;25.31;51.61;98731.09;7313303;19;129924;-34
2022/06/24 09:21:36;;;;;;;;;;;;;;;25.48;51.14;98750.97;7315001;19;129762;-34
2022/06/24 09:24:03;;;;;;;;;;;;;;;25.58;51.52;98725.97;7314167;19;129053;-38
2022/06/24 09:26:31;;;;;;;;;;;;;;;25.64;51.71;98730.50;7313360;19;131752;-34
2022/06/24 09:28:56;;;;;;;;;;;;;;;25.67;51.60;98731.94;7312889;19;131229;-33
2022/06/24 09:31:24;;;;;;;;;;;;;;;25.69;52.00;98724.66;7314494;19;128980;-35
2022/06/24 09:33:49;;;;;;;;;;;;;;;25.69;51.41;98717.59;7312738;19;128900;-41
2022/06/24 09:36:14;;;;;;;;;;;;;;;25.72;51.74;98719.03;7313651;19;130606;-40
2022/06/24 09:38:55;;;;;;;;;;;;;;;25.73;52.26;98736.47;7309796;19;129535;-38
2022/06/24 09:41:20;;;;;;;;;;;;;;;25.74;52.01;98709.13;7313425;19;128955;-40
2022/06/24 09:43:46;;;;;;;;;;;;;;;25.32;46.67;98709.06;7312664;19;128951;-33
2022/06/24 09:46:24;;;;;;;;;;;;;;;25.01;46.37;98709.28;7313312;19;129145;-41
2022/06/24 09:48:53;;;;;;;;;;;;;;;24.95;45.84;98701.28;7313717;19;131117;-36
2022/06/24 09:51:19;;;;;;;;;;;;;;;24.92;45.72;98696.41;7313680;19;129111;-34
2022/06/24 09:53:45;;;;;;;;;;;;;;;24.92;45.38;98685.88;7313883;19;129305;-38
2022/06/24 09:56:11;;;;;;;;;;;;;;;24.93;45.64;98692.78;7310649;19;131157;-35
2022/06/24 09:58:37;;;;;;;;;;;;;;;24.95;45.79;98685.53;7307376;19;130340;-33
2022/06/24 10:01:02;;;;;;;;;;;;;;;25.21;51.21;98685.84;7312439;19;129202;-32
2022/06/24 10:03:27;;;;;;;;;;;;;;;25.40;50.68;98686.09;7313317;19;129468;-30
2022/06/24 10:05:54;;;;;;;;;;;;;;;25.50;51.15;98680.53;7312884;19;130192;-35
2022/06/24 10:08:20;;;;;;;;;;;;;;;25.59;51.42;98682.84;7309202;19;129746;-34
2022/06/24 10:10:50;;;;;;;;;;;;;;;25.65;51.57;98686.56;7312733;19;129223;-38
2022/06/24 10:13:22;;;;;;;;;;;;;;;25.69;51.57;98679.91;7312773;19;130528;-35
2022/06/24 10:15:48;;;;;;;;;;;;;;;25.69;51.84;98675.47;7309914;19;130019;-31
2022/06/24 10:18:14;;;;;;;;;;;;;;;25.71;51.65;98677.91;7310584;19;129569;-34
2022/06/24 10:20:44;;;;;;;;;;;;;;;25.65;51.58;98662.88;7313003;19;129576;-35
2022/06/24 10:23:29;;;;;;;;;;;;;;;25.72;52.42;98674.25;7310882;19;129719;-34
2022/06/24 10:25:54;;;;;;;;;;;;;;;25.39;47.84;98667.84;7311206;19;130322;-32
2022/06/24 10:28:19;;;;;;;;;;;;;;;24.98;46.22;98643.06;7308602;19;130047;-34
2022/06/24 10:30:48;;;;;;;;;;;;;;;24.97;45.66;98655.44;7313079;19;129137;-42
2022/06/24 10:33:25;;;;;;;;;;;;;;;24.95;46.19;98659.22;7311360;19;129473;-37
2022/06/24 10:36:01;;;;;;;;;;;;;;;24.92;46.20;98665.69;7309160;19;130379;-32
2022/06/24 10:38:34;;;;;;;;;;;;;;;24.94;46.09;98657.59;7307994;19;130319;-39
2022/06/24 10:40:59;;;;;;;;;;;;;;;25.00;48.64;98662.94;7312407;19;129903;-38
2022/06/24 10:43:34;;;;;;;;;;;;;;;25.29;51.47;98654.16;7311012;19;129522;-33
2022/06/24 10:46:11;;;;;;;;;;;;;;;25.45;51.69;98667.13;7311943;19;130377;-35
2022/06/24 10:48:51;;;;;;;;;;;;;;;25.54;51.40;98666.81;7307951;19;129130;-33
2022/06/24 10:51:18;;;;;;;;;;;;;;;25.62;51.47;98668.50;7310948;19;129180;-40
2022/06/24 10:54:01;;;;;;;;;;;;;;;25.69;51.66;98669.38;7312245;19;129673;-34
2022/06/24 10:56:45;;;;;;;;;;;;;;;25.69;51.60;98662.31;7310340;19;130068;-34
2022/06/24 10:59:12;;;;;;;;;;;;;;;25.73;51.41;98662.75;7311450;19;130429;-34
2022/06/24 11:01:44;;;;;;;;;;;;;;;25.74;51.38;98664.38;7310299;19;130142;-32
2022/06/24 11:04:11;;;;;;;;;;;;;;;25.73;51.62;98660.13;7310093;19;129874;-35
2022/06/24 11:06:37;;;;;;;;;;;;;;;25.73;52.02;98666.16;7309623;19;130340;-31
2022/06/24 11:09:06;;;;;;;;;;;;;;;25.47;47.98;98652.75;7310468;19;130254;-34
2022/06/24 11:11:32;;;;;;;;;;;;;;;25.06;46.31;98658.75;7315623;19;129224;-34
2022/06/24 11:13:57;;;;;;;;;;;;;;;24.98;45.87;98658.84;7316204;19;129073;-38
2022/06/24 11:16:27;;;;;;;;;;;;;;;24.93;46.26;98666.47;7316826;19;130626;-35
2022/06/24 11:18:52;;;;;;;;;;;;;;;24.87;45.83;98656.69;7316219;19;130383;-39
2022/06/24 11:21:18;;;;;;;;;;;;;;;24.95;45.62;98661.84;7317204;19;128870;-38
2022/06/24 11:23:45;;;;;;;;;;;;;;;24.96;45.78;98661.66;7317551;19;129484;-38
2022/06/24 11:26:19;;;;;;;;;;;;;;;25.23;50.96;98665.41;7317831;19;130140;-31
2022/06/24 11:28:51;;;;;;;;;;;;;;;25.43;50.87;98663.84;7314701;19;129713;-41
2022/06/24 11:31:23;;;;;;;;;;;;;;;25.52;51.12;98657.47;7317513;19;129566;-38
2022/06/24 11:33:50;;;;;;;;;;;;;;;25.61;51.04;98657.16;7317352;19;130539;-32
2022/06/24 11:36:16;;;;;;;;;;;;;;;25.66;51.06;98669.75;7313281;19;131129;-37
2022/06/24 11:38:58;;;;;;;;;;;;;;;25.67;51.06;98666.13;7313641;19;129560;-40
2022/06/24 11:41:26;;;;;;;;;;;;;;;25.62;51.72;98657.97;7316654;19;129704;-32
2022/06/24 11:43:52;;;;;;;;;;;;;;;25.73;52.02;98670.66;7315959;19;129334;-35
2022/06/24 11:46:17;;;;;;;;;;;;;;;25.73;51.41;98670.66;7316891;19;129518;-33
2022/06/24 11:48:43;;;;;;;;;;;;;;;25.74;51.81;98672.25;7312428;19;129507;-33
2022/06/24 11:51:20;;;;;;;;;;;;;;;25.76;51.95;98659.72;7318031;19;130539;-30
2022/06/24 11:53:58;;;;;;;;;;;;;;;25.18;47.03;98659.91;7317014;19;129743;-33
2022/06/24 11:56:28;;;;;;;;;;;;;;;25.01;45.60;98661.09;7314094;19;129186;-36
2022/06/24 11:58:57;;;;;;;;;;;;;;;24.95;46.03;98665.31;7315529;19;131162;-39
2022/06/24 12:01:23;;;;;;;;;;;;;;;24.96;45.33;98666.94;7316858;19;129234;-37
2022/06/24 12:03:50;;;;;;;;;;;;;;;24.95;45.22;98667.13;7316289;19;129173;-34
2022/06/24 12:06:16;;;;;;;;;;;;;;;25.06;49.71;98671.88;7313391;19;131816;-37
2022/06/24 12:08:41;;;;;;;;;;;;;;;25.33;51.66;98665.94;7313639;19;129452;-39
2022/06/24 12:11:13;;;;;;;;;;;;;;;25.47;51.58;98659.84;7316239;19;128841;-34
2022/06/24 12:13:38;;;;;;;;;;;;;;;25.58;51.22;98662.00;7316955;19;130059;-37
2022/06/24 12:16:04;;;;;;;;;;;;;;;25.65;51.42;98662.88;7312695;19;128998;-38
2022/06/24 12:18:30;;;;;;;;;;;;;;;25.67;51.36;98664.31;7313128;19;132227;-37
2022/06/24 12:20:56;;;;;;;;;;;;;;;25.70;51.81;98665.75;7315803;19;130705;-29
2022/06/24 12:23:22;;;;;;;;;;;;;;;25.71;52.01;98656.84;7313794;19;129162;-36
2022/06/24 12:25:48;;;;;;;;;;;;;;;25.73;51.82;98646.94;7315504;19;129304;-33
2022/06/24 12:28:18;;;;;;;;;;;;;;;25.75;51.87;98641.50;7313262;19;130462;-36
2022/06/24 12:30:54;;;;;;;;;;;;;;;25.75;51.87;98647.56;7315968;19;130249;-34
2022/06/24 12:33:20;;;;;;;;;;;;;;;25.32;46.18;98646.69;7314774;19;129575;-34
2022/06/24 12:35:45;;;;;;;;;;;;;;;25.04;45.77;98637.09;7312063;19;129543;-39
2022/06/24 12:38:12;;;;;;;;;;;;;;;24.98;46.09;98643.06;7311356;19;130565;-36
2022/06/24 12:40:37;;;;;;;;;;;;;;;24.96;45.85;98643.25;7314871;19;130692;-33